Time;durP1;ratioP1;P1;durP2;ratioP2;P2;SDS_P1;SDS_P2;PMS_P1;PMS_P2;Temp;Humidity;BMP_temperature;BMP_pressure;BME280_temperature;BME280_humidity;BME280_pressure;Samples;Min_cycle;Max_cycle;Signal;HPM_P1;HPM_P2
2023/09/02 00:01:02;;;;;;;8.95;3.35;;;;;;;10.94;100.00;101099.16;5054502;28;20083;-92
2023/09/02 00:03:27;;;;;;;6.57;3.17;;;;;;;10.85;100.00;101102.84;5054476;28;20037;-92
2023/09/02 00:05:53;;;;;;;9.27;3.67;;;;;;;10.67;100.00;101101.19;5054489;28;20032;-92
2023/09/02 00:08:19;;;;;;;8.23;3.25;;;;;;;10.67;100.00;101105.75;5054640;28;20025;-92
2023/09/02 00:10:45;;;;;;;11.02;5.00;;;;;;;10.66;100.00;101112.09;5038529;28;20399;-92
2023/09/02 00:13:13;;;;;;;6.15;2.97;;;;;;;10.66;100.00;101114.78;5054186;28;20029;-92
2023/09/02 00:15:41;;;;;;;7.45;3.70;;;;;;;10.60;100.00;101110.09;5071018;28;20098;-91
2023/09/02 00:18:06;;;;;;;5.28;3.05;;;;;;;10.54;100.00;101114.28;5038562;28;20036;-90
2023/09/02 00:20:32;;;;;;;7.43;3.33;;;;;;;10.51;100.00;101120.84;5037777;28;20041;-92
2023/09/02 00:22:57;;;;;;;7.82;3.38;;;;;;;10.43;100.00;101112.78;5040307;28;20090;-92
2023/09/02 00:25:24;;;;;;;9.18;3.38;;;;;;;10.29;100.00;101110.72;5053753;28;20150;-94
2023/09/02 00:27:50;;;;;;;6.70;3.20;;;;;;;10.24;100.00;101121.97;5053382;28;20098;-93
2023/09/02 00:30:16;;;;;;;7.57;2.90;;;;;;;10.16;100.00;101126.44;5070286;28;20526;-93
2023/09/02 00:32:42;;;;;;;4.85;2.85;;;;;;;10.08;100.00;101129.94;5070174;28;20110;-92
2023/09/02 00:35:09;;;;;;;7.05;2.72;;;;;;;10.06;100.00;101130.13;5053638;28;20028;-93
2023/09/02 00:37:38;;;;;;;8.65;2.97;;;;;;;9.93;100.00;101121.69;5037167;28;20095;-93
2023/09/02 00:40:05;;;;;;;4.60;2.08;;;;;;;9.87;100.00;101127.69;5055218;28;20056;-91
2023/09/02 00:42:35;;;;;;;6.05;2.33;;;;;;;9.82;100.00;101130.06;5037607;28;20040;-92
2023/09/02 00:45:01;;;;;;;6.80;2.70;;;;;;;9.76;100.00;101117.25;5037022;28;20032;-94
2023/09/02 00:47:30;;;;;;;5.45;2.53;;;;;;;9.83;100.00;101123.66;5020318;28;20095;-93
2023/09/02 00:49:57;;;;;;;5.22;2.60;;;;;;;9.81;100.00;101123.81;5053954;28;20116;-93
2023/09/02 00:52:23;;;;;;;8.50;3.55;;;;;;;9.83;100.00;101132.56;5036833;28;20033;-93
2023/09/02 00:54:49;;;;;;;6.68;3.17;;;;;;;9.83;100.00;101137.09;5038283;28;20033;-93
2023/09/02 00:57:15;;;;;;;6.72;3.10;;;;;;;9.79;100.00;101143.78;5056754;28;20033;-94
2023/09/02 00:59:45;;;;;;;7.80;3.17;;;;;;;9.81;100.00;101141.78;5040887;28;20032;-93
2023/09/02 01:02:11;;;;;;;6.03;3.10;;;;;;;9.96;100.00;101148.22;5056949;28;20037;-92
2023/09/02 01:04:37;;;;;;;5.70;3.00;;;;;;;9.93;100.00;101136.97;5040792;28;20037;-93
2023/09/02 01:07:02;;;;;;;5.95;3.05;;;;;;;9.90;100.00;101138.97;5058018;28;20025;-92
2023/09/02 01:09:30;;;;;;;9.18;3.67;;;;;;;9.93;100.00;101137.81;5057478;28;20029;-93
2023/09/02 01:11:58;;;;;;;10.38;3.33;;;;;;;10.23;100.00;101149.81;5040781;28;20037;-92
2023/09/02 01:14:23;;;;;;;5.60;2.70;;;;;;;10.45;100.00;101142.16;5056892;28;20033;-92
2023/09/02 01:16:52;;;;;;;6.85;2.78;;;;;;;10.51;100.00;101145.03;5056332;28;20529;-92
2023/09/02 01:19:19;;;;;;;9.18;3.22;;;;;;;10.48;100.00;101144.53;5056679;28;20112;-92
2023/09/02 01:22:22;;;;;;;8.52;3.30;;;;;;;10.38;100.00;101141.16;5040124;28;20025;-93
2023/09/02 01:25:27;;;;;;;7.43;3.10;;;;;;;10.18;100.00;101145.94;5057858;28;20021;-93
2023/09/02 01:27:57;;;;;;;6.10;2.97;;;;;;;9.95;100.00;101153.75;5057651;28;20392;-92
2023/09/02 01:30:27;;;;;;;6.78;2.90;;;;;;;9.84;100.00;101155.75;5024540;28;20037;-92
2023/09/02 01:32:54;;;;;;;5.57;3.03;;;;;;;9.72;100.00;101148.13;5043169;28;20056;-90
2023/09/02 01:35:29;;;;;;;6.40;2.63;;;;;;;9.69;100.00;101157.34;5080586;28;20013;-90
2023/09/02 01:38:00;;;;;;;5.38;2.90;;;;;;;9.68;100.00;101156.50;5074327;28;20025;-91
2023/09/02 01:40:26;;;;;;;7.07;4.05;;;;;;;9.74;100.00;101156.84;5065307;28;20033;-92
2023/09/02 01:42:56;;;;;;;6.32;3.08;;;;;;;9.85;100.00;101157.41;5036434;28;20105;-91
2023/09/02 01:45:27;;;;;;;7.60;3.60;;;;;;;9.87;100.00;101154.56;5041734;28;20601;-92
2023/09/02 01:47:56;;;;;;;8.70;4.07;;;;;;;9.75;100.00;101158.56;5041388;28;20033;-92
2023/09/02 01:50:25;;;;;;;9.55;3.83;;;;;;;9.74;100.00;101146.09;5040382;28;20093;-91
2023/09/02 01:52:56;;;;;;;10.95;4.28;;;;;;;9.89;100.00;101150.69;5023416;28;20422;-91
2023/09/02 01:55:25;;;;;;;7.72;4.57;;;;;;;10.01;100.00;101156.66;5056298;28;20021;-93
2023/09/02 01:57:53;;;;;;;7.70;3.58;;;;;;;9.97;100.00;101160.63;5023220;28;20068;-91
2023/09/02 02:00:18;;;;;;;6.63;3.78;;;;;;;9.89;100.00;101166.81;5039675;28;20039;-91
2023/09/02 02:02:53;;;;;;;7.40;3.70;;;;;;;9.77;100.00;101170.81;5056770;28;20033;-91
2023/09/02 02:05:25;;;;;;;6.38;3.30;;;;;;;9.68;100.00;101169.94;5055513;28;20025;-93
2023/09/02 02:08:02;;;;;;;10.02;4.47;;;;;;;9.87;100.00;101171.53;5040320;28;20037;-91
2023/09/02 02:10:29;;;;;;;15.75;5.72;;;;;;;10.15;100.00;101167.78;5056005;28;20027;-91
2023/09/02 02:12:55;;;;;;;19.38;6.78;;;;;;;10.45;100.00;101163.66;5055882;28;20038;-92
2023/09/02 02:15:27;;;;;;;57.38;11.13;;;;;;;10.90;100.00;101171.31;5022541;28;20033;-92
2023/09/02 02:17:53;;;;;;;67.38;12.20;;;;;;;11.33;100.00;101190.78;5056551;28;20044;-93
2023/09/02 02:20:21;;;;;;;84.90;16.55;;;;;;;11.65;100.00;101184.50;5055841;28;20041;-93
2023/09/02 02:22:47;;;;;;;148.65;21.40;;;;;;;12.03;100.00;101194.69;5055532;28;20106;-92
2023/09/02 02:25:15;;;;;;;185.48;26.67;;;;;;;12.28;100.00;101190.88;5055481;28;20452;-92
2023/09/02 02:27:41;;;;;;;160.10;24.90;;;;;;;12.42;100.00;101181.16;5089140;28;20029;-92
2023/09/02 02:30:07;;;;;;;161.98;23.42;;;;;;;12.61;100.00;101187.97;5057201;28;20471;-92
2023/09/02 02:32:33;;;;;;;134.73;26.20;;;;;;;12.75;100.00;101192.59;5038932;28;20037;-92
2023/09/02 02:35:01;;;;;;;206.57;27.15;;;;;;;12.83;100.00;101191.69;5038944;28;20029;-93
2023/09/02 02:37:27;;;;;;;192.82;26.45;;;;;;;12.86;100.00;101194.03;5055891;28;20032;-92
2023/09/02 02:39:53;;;;;;;120.35;23.33;;;;;;;12.89;100.00;101198.25;5072624;28;20033;-95
2023/09/02 02:42:20;;;;;;;186.30;24.58;;;;;;;12.93;100.00;101200.38;5055962;28;20178;-92
2023/09/02 02:44:46;;;;;;;185.75;24.23;;;;;;;12.94;100.00;101202.06;5056046;28;20036;-92
2023/09/02 02:47:12;;;;;;;153.20;21.45;;;;;;;12.94;100.00;101195.84;5038170;28;20029;-92
2023/09/02 02:49:38;;;;;;;106.82;18.25;;;;;;;12.96;100.00;101201.88;5055457;28;20029;-93
2023/09/02 02:52:03;;;;;;;163.18;20.23;;;;;;;12.95;100.00;101202.91;5054642;28;20395;-92
2023/09/02 02:54:53;;;;;;;127.40;19.77;;;;;;;12.91;100.00;101206.97;5071781;28;20041;-93
2023/09/02 02:57:21;;;;;;;127.82;20.38;;;;;;;12.91;100.00;101206.97;5055627;28;20024;-93
2023/09/02 02:59:50;;;;;;;163.77;21.83;;;;;;;12.87;100.00;101211.06;5054904;28;20128;-93
2023/09/02 03:02:17;;;;;;;170.43;21.40;;;;;;;12.85;100.00;101219.34;5022072;28;20037;-92
2023/09/02 03:04:47;;;;;;;136.63;19.52;;;;;;;12.84;100.00;101219.53;5054914;28;20033;-93
2023/09/02 03:07:16;;;;;;;154.52;22.67;;;;;;;12.83;100.00;101217.84;5056577;28;20028;-93
2023/09/02 03:09:42;;;;;;;131.35;20.17;;;;;;;12.81;100.00;101214.47;5071885;28;20036;-92
2023/09/02 03:12:07;;;;;;;89.13;15.98;;;;;;;12.80;100.00;101218.19;5038449;28;20090;-93
2023/09/02 03:14:33;;;;;;;100.00;17.73;;;;;;;12.79;100.00;101216.53;5071030;28;20064;-93
2023/09/02 03:16:59;;;;;;;112.90;16.70;;;;;;;12.74;100.00;101214.34;5071351;28;20025;-92
2023/09/02 03:19:25;;;;;;;88.10;17.63;;;;;;;12.71;100.00;101212.84;5038079;28;20489;-92
2023/09/02 03:21:53;;;;;;;144.30;21.13;;;;;;;12.67;100.00;101216.06;5037996;28;20139;-91
2023/09/02 03:24:19;;;;;;;125.90;21.25;;;;;;;12.65;100.00;101212.72;5037777;28;20028;-92
2023/09/02 03:26:45;;;;;;;112.45;18.33;;;;;;;12.64;100.00;101222.66;5037568;28;20097;-92
2023/09/02 03:29:11;;;;;;;149.70;19.63;;;;;;;12.63;100.00;101221.00;5054480;28;20519;-92
2023/09/02 03:31:38;;;;;;;136.52;20.23;;;;;;;12.60;100.00;101218.66;5054177;28;20128;-93
2023/09/02 03:34:07;;;;;;;131.50;19.75;;;;;;;12.60;100.00;101232.16;5054905;28;20476;-92
2023/09/02 03:36:37;;;;;;;153.40;19.75;;;;;;;12.57;100.00;101227.13;5055004;28;20039;-92
2023/09/02 03:39:03;;;;;;;150.30;20.98;;;;;;;12.56;100.00;101230.81;5054579;28;20025;-92
2023/09/02 03:41:29;;;;;;;145.10;21.25;;;;;;;12.54;100.00;101235.53;5054977;28;20035;-92
2023/09/02 03:43:55;;;;;;;97.47;17.30;;;;;;;12.48;100.00;101237.09;5055241;28;20028;-92
2023/09/02 03:46:24;;;;;;;127.95;19.63;;;;;;;12.49;100.00;101235.22;5037978;28;20044;-92
2023/09/02 03:48:49;;;;;;;97.63;15.80;;;;;;;12.46;100.00;101230.19;5054074;28;20112;-92
2023/09/02 03:51:16;;;;;;;130.60;17.90;;;;;;;12.42;100.00;101234.28;5053878;28;20025;-92
2023/09/02 03:53:45;;;;;;;106.45;20.27;;;;;;;12.40;100.00;101239.00;5064671;28;20021;-91
2023/09/02 03:56:10;;;;;;;109.97;18.88;;;;;;;12.37;100.00;101245.59;5061903;28;20048;-91
2023/09/02 03:58:36;;;;;;;106.47;19.52;;;;;;;12.34;100.00;101248.63;5062408;28;20033;-92
2023/09/02 04:01:05;;;;;;;132.05;19.08;;;;;;;12.31;100.00;101249.81;5054235;28;20044;-94
2023/09/02 04:03:35;;;;;;;91.80;16.80;;;;;;;12.30;100.00;101250.84;5038061;28;20483;-93
2023/09/02 04:06:01;;;;;;;121.78;17.77;;;;;;;12.29;100.00;101249.16;5038011;28;20120;-92
2023/09/02 04:08:26;;;;;;;97.63;16.85;;;;;;;12.26;100.00;101243.28;5071182;28;20060;-93
2023/09/02 04:10:54;;;;;;;86.03;15.73;;;;;;;12.22;100.00;101250.84;5054690;28;20045;-93
2023/09/02 04:13:29;;;;;;;108.55;16.63;;;;;;;12.20;100.00;101258.31;5054345;28;20035;-93
2023/09/02 04:15:58;;;;;;;100.68;16.75;;;;;;;12.16;100.00;101256.13;5055395;28;20082;-93
2023/09/02 04:18:27;;;;;;;111.43;17.23;;;;;;;12.17;100.00;101264.06;5055114;28;20060;-92
2023/09/02 04:20:55;;;;;;;131.63;17.08;;;;;;;12.16;100.00;101273.13;5054663;28;20105;-93
2023/09/02 04:23:23;;;;;;;119.97;17.95;;;;;;;12.17;100.00;101274.84;5054478;28;20368;-92
2023/09/02 04:25:53;;;;;;;106.60;16.15;;;;;;;12.18;100.00;101275.66;5037837;28;20044;-93
2023/09/02 04:28:22;;;;;;;89.00;15.65;;;;;;;12.16;100.00;101280.38;5054204;28;20488;-92
2023/09/02 04:30:48;;;;;;;113.18;16.88;;;;;;;12.16;100.00;101283.09;5042310;28;20431;-92
2023/09/02 04:33:15;;;;;;;123.32;16.25;;;;;;;12.18;100.00;101295.38;5041797;28;20090;-93
2023/09/02 04:35:44;;;;;;;127.22;18.08;;;;;;;12.14;100.00;101288.63;5026139;28;20464;-93
2023/09/02 04:38:16;;;;;;;82.80;14.52;;;;;;;12.20;100.00;101293.34;5059225;28;20044;-92
2023/09/02 04:40:46;;;;;;;85.32;14.75;;;;;;;12.22;100.00;101296.69;5042833;28;20044;-93
2023/09/02 04:43:12;;;;;;;86.50;15.55;;;;;;;12.28;100.00;101300.56;5058946;28;20039;-93
2023/09/02 04:45:45;;;;;;;122.80;15.32;;;;;;;12.29;100.00;101305.78;5060181;28;20120;-92
2023/09/02 04:48:13;;;;;;;146.60;16.77;;;;;;;12.31;100.00;101309.16;5072864;28;20057;-92
2023/09/02 04:50:40;;;;;;;164.35;17.13;;;;;;;12.31;100.00;101317.25;5061070;28;20040;-92
2023/09/02 04:53:07;;;;;;;109.60;15.23;;;;;;;12.36;100.00;101323.94;5074024;28;20029;-92
2023/09/02 04:55:36;;;;;;;108.05;15.10;;;;;;;12.28;100.00;101320.28;5071625;28;20037;-92
2023/09/02 04:58:03;;;;;;;142.65;17.75;;;;;;;12.32;100.00;101337.78;5042605;28;20143;-92
2023/09/02 05:00:32;;;;;;;112.80;15.35;;;;;;;12.32;100.00;101343.19;5058629;28;20156;-93
2023/09/02 05:02:57;;;;;;;130.13;15.93;;;;;;;12.37;100.00;101347.22;5074209;28;20107;-93
2023/09/02 05:05:29;;;;;;;106.15;16.25;;;;;;;12.39;100.00;101353.28;5057092;28;20036;-92
2023/09/02 05:07:55;;;;;;;133.43;16.25;;;;;;;12.40;100.00;101349.56;5040756;28;20049;-93
2023/09/02 05:10:20;;;;;;;70.18;11.43;;;;;;;12.32;100.00;101353.97;5056980;28;20529;-92
2023/09/02 05:12:46;;;;;;;89.78;11.30;;;;;;;12.19;100.00;101359.06;5057124;28;20087;-93
2023/09/02 05:15:11;;;;;;;85.63;12.32;;;;;;;12.16;100.00;101359.41;5057974;28;20035;-92
2023/09/02 05:17:37;;;;;;;99.38;12.32;;;;;;;12.18;100.00;101352.00;5056604;28;20029;-93
2023/09/02 05:20:04;;;;;;;109.10;11.82;;;;;;;12.16;100.00;101362.09;5056831;28;20082;-92
2023/09/02 05:22:34;;;;;;;165.75;15.07;;;;;;;12.10;100.00;101360.09;5057561;28;20480;-92
2023/09/02 05:25:00;;;;;;;140.65;13.75;;;;;;;12.11;100.00;101372.56;5057046;28;20033;-93
2023/09/02 05:27:28;;;;;;;147.75;15.45;;;;;;;12.12;100.00;101370.69;5073888;28;20391;-92
2023/09/02 05:29:53;;;;;;;170.93;15.25;;;;;;;12.12;100.00;101370.69;5040041;28;20184;-92
2023/09/02 05:32:19;;;;;;;150.25;15.00;;;;;;;12.09;100.00;101366.47;5039735;28;20025;-92
2023/09/02 05:34:44;;;;;;;157.55;14.82;;;;;;;12.07;100.00;101369.38;5039894;28;20032;-92
2023/09/02 05:37:10;;;;;;;60.70;12.00;;;;;;;12.16;100.00;101374.75;5056398;28;20033;-91
2023/09/02 05:39:36;;;;;;;96.57;12.25;;;;;;;12.19;100.00;101374.41;5056168;28;20357;-92
2023/09/02 05:42:04;;;;;;;96.85;12.02;;;;;;;12.24;100.00;101377.41;5057398;28;20494;-92
2023/09/02 05:44:31;;;;;;;146.65;14.02;;;;;;;12.24;100.00;101380.13;5057157;28;20095;-92
2023/09/02 05:46:58;;;;;;;103.03;14.23;;;;;;;12.28;100.00;101390.41;5056627;28;20459;-93
2023/09/02 05:49:25;;;;;;;76.47;12.07;;;;;;;12.31;100.00;101389.22;5056684;28;20498;-91
2023/09/02 05:51:51;;;;;;;74.35;13.40;;;;;;;12.37;100.00;101393.06;5056966;28;20161;-93
2023/09/02 05:54:17;;;;;;;47.58;10.43;;;;;;;12.41;100.00;101395.25;5056798;28;20486;-93
2023/09/02 05:56:44;;;;;;;76.43;11.20;;;;;;;12.47;100.00;101399.13;5056183;28;20037;-93
2023/09/02 05:59:13;;;;;;;103.25;14.18;;;;;;;12.47;100.00;101408.03;5040654;28;20046;-92
2023/09/02 06:01:43;;;;;;;94.05;13.02;;;;;;;12.53;100.00;101409.22;5056333;28;20463;-92
2023/09/02 06:04:30;;;;;;;57.28;10.95;;;;;;;12.60;100.00;101420.16;5042248;28;20115;-92
2023/09/02 06:06:58;;;;;;;65.15;11.80;;;;;;;12.56;100.00;101408.03;5057131;28;20025;-92
2023/09/02 06:09:26;;;;;;;76.82;11.85;;;;;;;12.66;100.00;101420.28;5058029;28;20114;-93
2023/09/02 06:11:53;;;;;;;56.83;10.65;;;;;;;12.72;100.00;101414.19;5057211;28;20033;-93
2023/09/02 06:14:21;;;;;;;84.85;14.32;;;;;;;12.74;100.00;101431.06;5056838;28;20037;-91
2023/09/02 06:16:46;;;;;;;68.93;11.20;;;;;;;12.72;100.00;101435.78;5057472;28;20059;-93
2023/09/02 06:19:14;;;;;;;89.45;12.68;;;;;;;12.74;100.00;101439.16;5069582;28;20092;-90
2023/09/02 06:21:40;;;;;;;79.43;12.10;;;;;;;12.77;100.00;101436.09;5079339;28;20035;-90
2023/09/02 06:24:06;;;;;;;85.15;12.35;;;;;;;12.81;100.00;101443.84;5062798;28;20072;-92
2023/09/02 06:26:32;;;;;;;85.07;13.23;;;;;;;12.84;100.00;101444.38;5039949;28;20440;-92
2023/09/02 06:28:58;;;;;;;79.05;11.82;;;;;;;12.84;100.00;101444.38;5056088;28;20052;-91
2023/09/02 06:31:24;;;;;;;87.60;12.25;;;;;;;12.82;100.00;101434.75;5056402;28;20495;-92
2023/09/02 06:33:52;;;;;;;87.63;12.32;;;;;;;12.94;100.00;101454.97;5056783;28;20024;-91
2023/09/02 06:36:20;;;;;;;82.93;12.52;;;;;;;13.03;100.00;101459.31;5040321;28;20131;-91
2023/09/02 06:38:46;;;;;;;66.45;12.15;;;;;;;13.10;100.00;101452.19;5040316;28;20033;-90
2023/09/02 06:41:13;;;;;;;58.58;11.27;;;;;;;13.11;100.00;101455.72;5040024;28;20037;-92
2023/09/02 06:43:39;;;;;;;62.20;11.45;;;;;;;13.18;100.00;101459.44;5039613;28;20041;-92
2023/09/02 06:46:16;;;;;;;52.00;10.48;;;;;;;13.18;100.00;101460.25;5056070;28;20040;-91
2023/09/02 06:48:44;;;;;;;63.22;11.68;;;;;;;13.18;100.00;101478.31;5055740;28;20034;-93
2023/09/02 06:51:09;;;;;;;51.45;10.43;;;;;;;13.23;100.00;101469.66;5056712;28;20097;-93
2023/09/02 06:53:35;;;;;;;53.33;11.00;;;;;;;13.31;100.00;101477.78;5074250;28;20033;-92
2023/09/02 06:56:01;;;;;;;46.58;10.00;;;;;;;13.31;100.00;101473.22;5029386;28;20040;-94
2023/09/02 06:58:37;;;;;;;56.70;10.65;;;;;;;13.41;100.00;101487.34;5042603;28;20033;-91
2023/09/02 07:01:03;;;;;;;61.65;10.60;;;;;;;13.49;100.00;101481.06;5028107;28;20036;-92
2023/09/02 07:03:29;;;;;;;46.17;10.50;;;;;;;13.61;100.00;101490.44;5045551;28;20037;-91
2023/09/02 07:06:04;;;;;;;52.28;10.55;;;;;;;13.67;100.00;101482.66;5066178;28;20048;-90
2023/09/02 07:08:30;;;;;;;46.63;10.80;;;;;;;13.72;100.00;101488.38;5046516;28;20037;-92
2023/09/02 07:10:56;;;;;;;42.90;9.57;;;;;;;13.74;100.00;101494.44;5059235;28;20036;-94
2023/09/02 07:13:22;;;;;;;39.75;8.60;;;;;;;13.70;100.00;101495.81;5039544;28;20124;-92
2023/09/02 07:15:48;;;;;;;49.10;9.00;;;;;;;13.72;100.00;101491.06;5059282;28;20029;-92
2023/09/02 07:18:16;;;;;;;50.15;9.10;;;;;;;13.74;100.00;101489.88;5059926;28;20047;-90
2023/09/02 07:20:58;;;;;;;65.13;9.77;;;;;;;13.93;100.00;101499.38;5038994;28;20128;-90
2023/09/02 07:23:38;;;;;;;59.85;9.63;;;;;;;14.08;100.00;101499.44;5057984;28;20089;-89
2023/09/02 07:26:04;;;;;;;73.68;9.82;;;;;;;14.08;100.00;101492.16;5071406;28;20059;-88
2023/09/02 07:28:31;;;;;;;55.17;9.82;;;;;;;14.15;100.00;101499.53;5088869;28;20040;-88
2023/09/02 07:31:05;;;;;;;34.80;7.95;;;;;;;14.19;100.00;101514.41;5054470;28;20065;-90
2023/09/02 07:33:31;;;;;;;53.58;8.82;;;;;;;14.18;100.00;101510.00;5038813;28;20036;-90
2023/09/02 07:35:57;;;;;;;28.83;6.75;;;;;;;14.17;100.00;101519.16;5054131;28;20033;-91
2023/09/02 07:38:24;;;;;;;31.48;6.65;;;;;;;14.11;100.00;101511.75;5055198;28;20021;-90
2023/09/02 07:40:49;;;;;;;22.00;6.50;;;;;;;14.18;100.00;101515.41;5038025;28;20395;-91
2023/09/02 07:43:15;;;;;;;23.75;6.90;;;;;;;14.15;100.00;101518.47;5055420;28;20029;-91
2023/09/02 07:45:44;;;;;;;27.90;6.50;;;;;;;14.20;100.00;101507.97;5087671;28;20036;-90
2023/09/02 07:48:09;;;;;;;28.30;8.98;;;;;;;14.35;100.00;101516.97;5022108;28;20032;-89
2023/09/02 07:50:38;;;;;;;21.90;7.18;;;;;;;14.43;100.00;101516.91;5054493;28;20111;-90
2023/09/02 07:53:04;;;;;;;31.60;8.27;;;;;;;14.60;100.00;101520.31;5053832;28;20064;-90
2023/09/02 07:55:29;;;;;;;35.15;9.20;;;;;;;14.73;100.00;101517.81;5055033;28;20036;-91
2023/09/02 07:57:59;;;;;;;17.52;5.82;;;;;;;14.72;100.00;101531.56;5053807;28;20029;-93
2023/09/02 08:00:29;;;;;;;17.23;5.82;;;;;;;14.60;100.00;101536.53;5049019;28;20049;-90
2023/09/02 08:02:55;;;;;;;24.40;6.97;;;;;;;14.43;100.00;101538.53;5046959;28;20119;-90
2023/09/02 08:05:22;;;;;;;15.88;5.68;;;;;;;14.40;100.00;101541.63;5063793;28;20035;-89
2023/09/02 08:07:50;;;;;;;18.38;6.55;;;;;;;14.41;100.00;101535.16;5042646;28;20047;-90
2023/09/02 08:10:16;;;;;;;14.73;5.43;;;;;;;14.54;100.00;101544.56;5053792;28;20033;-90
2023/09/02 08:12:42;;;;;;;19.63;6.93;;;;;;;14.73;100.00;101549.47;5069982;28;20498;-90
2023/09/02 08:15:10;;;;;;;21.77;7.28;;;;;;;14.86;100.00;101543.41;5070001;28;20104;-91
2023/09/02 08:17:40;;;;;;;18.08;5.43;;;;;;;14.93;100.00;101550.63;5054154;28;20361;-91
2023/09/02 08:20:07;;;;;;;32.35;6.65;;;;;;;14.99;100.00;101559.03;5053347;28;20041;-91
2023/09/02 08:22:32;;;;;;;18.23;4.90;;;;;;;15.07;100.00;101556.22;5053212;28;20036;-91
2023/09/02 08:24:58;;;;;;;22.88;6.20;;;;;;;15.12;100.00;101551.09;5052939;28;20033;-90
2023/09/02 08:27:24;;;;;;;13.60;4.78;;;;;;;15.16;100.00;101558.69;5053245;28;20078;-90
2023/09/02 08:29:50;;;;;;;7.30;5.32;;;;;;;15.27;100.00;101579.03;5053680;28;20040;-90
2023/09/02 08:32:15;;;;;;;11.68;6.80;;;;;;;15.28;100.00;101574.47;5036619;28;20033;-90
2023/09/02 08:34:41;;;;;;;12.30;7.55;;;;;;;15.22;100.00;101572.50;5054685;28;20064;-90
2023/09/02 08:37:07;;;;;;;20.25;5.70;;;;;;;15.12;100.00;101578.19;5063089;28;20032;-89
2023/09/02 08:39:32;;;;;;;6.50;4.53;;;;;;;15.19;100.00;101571.00;5074656;28;20051;-90
2023/09/02 08:41:58;;;;;;;7.65;5.60;;;;;;;15.46;100.00;101566.78;5061120;28;20029;-90
2023/09/02 08:44:27;;;;;;;9.85;5.85;;;;;;;15.64;100.00;101579.09;5052953;28;20025;-90
2023/09/02 08:46:54;;;;;;;9.40;4.18;;;;;;;15.73;100.00;101578.00;5037413;28;20037;-90
2023/09/02 08:49:20;;;;;;;7.65;3.90;;;;;;;15.60;100.00;101573.22;5036745;28;20036;-91
2023/09/02 08:51:46;;;;;;;5.20;4.03;;;;;;;15.73;100.00;101583.41;5020495;28;20483;-90
2023/09/02 08:54:14;;;;;;;5.50;4.03;;;;;;;15.93;100.00;101592.66;5020777;28;20044;-90
2023/09/02 08:56:43;;;;;;;4.47;3.35;;;;;;;16.03;100.00;101597.75;5053680;28;20029;-93
2023/09/02 08:59:09;;;;;;;5.03;3.55;;;;;;;16.15;100.00;101584.53;5036762;28;20119;-89
2023/09/02 09:01:44;;;;;;;7.10;3.60;;;;;;;16.31;100.00;101589.72;5052930;28;20048;-90
2023/09/02 09:04:13;;;;;;;5.63;3.60;;;;;;;16.34;100.00;101591.19;5036835;28;20368;-90
2023/09/02 09:06:40;;;;;;;7.55;3.53;;;;;;;16.51;100.00;101591.75;5036959;28;20380;-90
2023/09/02 09:09:08;;;;;;;4.35;3.30;;;;;;;16.56;100.00;101590.13;5036074;28;20060;-91
2023/09/02 09:11:36;;;;;;;5.70;3.85;;;;;;;16.54;100.00;101586.81;5053513;28;20061;-92
2023/09/02 09:14:02;;;;;;;4.65;3.90;;;;;;;16.61;100.00;101597.72;5053584;28;20438;-90
2023/09/02 09:16:33;;;;;;;5.22;3.40;;;;;;;16.77;100.00;101591.16;5089341;28;20032;-89
2023/09/02 09:19:01;;;;;;;4.63;3.60;;;;;;;16.95;100.00;101599.69;5040504;28;20098;-91
2023/09/02 09:21:27;;;;;;;5.40;3.58;;;;;;;17.01;100.00;101596.19;5040297;28;20068;-90
2023/09/02 09:23:52;;;;;;;6.43;3.60;;;;;;;16.85;100.00;101591.03;5057592;28;20132;-89
2023/09/02 09:26:19;;;;;;;6.55;3.53;;;;;;;16.71;100.00;101599.06;5057007;28;20036;-90
2023/09/02 09:28:52;;;;;;;8.90;3.58;;;;;;;16.69;100.00;101592.13;5073421;28;20451;-90
2023/09/02 09:31:23;;;;;;;7.13;3.70;;;;;;;16.59;100.00;101594.34;5024193;28;20037;-90
2023/09/02 09:33:54;;;;;;;5.80;3.72;;;;;;;16.55;100.00;101595.78;5056544;28;20455;-90
2023/09/02 09:36:23;;;;;;;8.15;3.70;;;;;;;16.91;100.00;101593.81;5057016;28;20494;-90
2023/09/02 09:38:53;;;;;;;6.43;4.05;;;;;;;17.13;100.00;101597.31;5040271;28;20091;-90
2023/09/02 09:41:18;;;;;;;4.72;3.38;;;;;;;17.23;100.00;101590.72;5057398;28;20084;-90
2023/09/02 09:43:44;;;;;;;11.10;4.28;;;;;;;17.27;100.00;101591.97;5056520;28;20582;-90
2023/09/02 09:46:17;;;;;;;4.10;3.55;;;;;;;17.36;100.00;101590.78;5056516;28;20033;-90
2023/09/02 09:48:47;;;;;;;3.90;3.42;;;;;;;17.41;100.00;101595.59;5040421;28;20100;-91
2023/09/02 09:51:23;;;;;;;4.47;3.60;;;;;;;17.66;100.00;101601.38;5056416;28;20042;-90
2023/09/02 09:53:48;;;;;;;3.80;3.33;;;;;;;17.77;100.00;101609.81;5056306;28;20110;-90
2023/09/02 09:56:14;;;;;;;5.95;4.20;;;;;;;17.71;100.00;101607.06;5056297;28;20467;-90
2023/09/02 09:58:40;;;;;;;5.40;4.40;;;;;;;17.42;100.00;101611.72;5039403;28;20067;-90
2023/09/02 10:01:08;;;;;;;5.18;4.22;;;;;;;17.40;100.00;101613.78;5039512;28;20467;-90
2023/09/02 10:03:35;;;;;;;6.25;4.78;;;;;;;17.54;100.00;101610.13;5040028;28;20146;-91
2023/09/02 10:06:01;;;;;;;4.93;3.97;;;;;;;17.56;100.00;101608.03;5055728;28;20487;-90
2023/09/02 10:08:27;;;;;;;5.07;4.55;;;;;;;17.55;100.00;101619.97;5023950;28;20036;-91
2023/09/02 10:10:53;;;;;;;4.80;4.00;;;;;;;17.56;100.00;101621.63;5039991;28;20029;-92
2023/09/02 10:13:19;;;;;;;4.72;4.22;;;;;;;17.54;100.00;101620.13;5039165;28;20037;-90
2023/09/02 10:15:46;;;;;;;4.72;3.85;;;;;;;17.30;100.00;101626.91;5056366;28;20032;-90
2023/09/02 10:18:12;;;;;;;4.53;3.67;;;;;;;17.34;100.00;101625.47;5039935;28;20061;-90
2023/09/02 10:20:38;;;;;;;4.18;3.28;;;;;;;17.25;100.00;101621.22;5055913;28;20044;-92
2023/09/02 10:23:06;;;;;;;4.57;3.38;;;;;;;17.21;100.00;101630.81;5039017;28;20415;-90
2023/09/02 10:25:42;;;;;;;5.13;3.78;;;;;;;17.30;100.00;101632.34;5055869;28;20025;-90
2023/09/02 10:28:12;;;;;;;4.72;4.07;;;;;;;17.31;100.00;101631.31;5040038;28;20033;-90
2023/09/02 10:30:51;;;;;;;3.88;3.47;;;;;;;17.21;100.00;101638.97;5072049;28;20048;-90
2023/09/02 10:33:23;;;;;;;4.85;3.40;;;;;;;17.16;100.00;101642.28;5039116;28;20029;-90
2023/09/02 10:36:00;;;;;;;5.45;3.50;;;;;;;17.14;100.00;101633.47;5038878;28;20049;-90
2023/09/02 10:38:27;;;;;;;4.88;3.47;;;;;;;17.25;100.00;101651.97;5023748;28;20032;-91
2023/09/02 10:41:11;;;;;;;4.88;3.38;;;;;;;17.31;100.00;101651.19;5055283;28;20387;-90
2023/09/02 10:43:37;;;;;;;4.75;3.30;;;;;;;17.57;100.00;101655.94;5040077;28;20041;-90
2023/09/02 10:46:03;;;;;;;4.47;2.92;;;;;;;17.87;100.00;101653.00;5038217;28;20029;-90
2023/09/02 10:48:29;;;;;;;4.13;3.10;;;;;;;18.20;100.00;101661.28;5038691;28;20044;-91
2023/09/02 10:50:55;;;;;;;4.00;3.53;;;;;;;18.81;100.00;101657.66;5038686;28;20029;-90
2023/09/02 10:53:47;;;;;;;9.50;8.15;;;;;;;19.36;100.00;101659.31;5056032;28;20478;-90
2023/09/02 10:56:23;;;;;;;6.38;4.22;;;;;;;19.65;100.00;101668.91;5050869;28;20048;-90
2023/09/02 10:58:49;;;;;;;4.63;2.88;;;;;;;19.50;100.00;101675.47;5059533;28;20036;-89
2023/09/02 11:01:14;;;;;;;3.63;3.30;;;;;;;19.60;100.00;101679.63;5054865;28;20036;-89
2023/09/02 11:03:48;;;;;;;4.57;3.45;;;;;;;19.51;100.00;101684.47;5055887;28;20040;-89
2023/09/02 11:06:15;;;;;;;7.60;3.10;;;;;;;19.41;100.00;101684.91;5054725;28;20051;-90
2023/09/02 11:08:49;;;;;;;4.68;3.25;;;;;;;19.45;100.00;101693.50;5054671;28;20028;-89
2023/09/02 11:11:15;;;;;;;5.28;3.35;;;;;;;19.75;100.00;101692.00;5023175;28;20131;-90